createdAt,value
2023-04-18T00:00:12.234Z,96378.50
2023-04-18T00:05:18.214Z,96384.19
2023-04-18T00:10:21.193Z,96378.78
2023-04-18T00:15:25.807Z,96369.03
2023-04-18T00:20:28.623Z,96370.13
2023-04-18T00:25:31.439Z,96370.41
2023-04-18T00:30:35.653Z,96364.16
2023-04-18T00:35:39.044Z,96357.13
2023-04-18T00:40:42.092Z,96360.66
2023-04-18T00:45:46.462Z,96359.84
2023-04-18T00:50:49.315Z,96351.19
2023-04-18T00:55:52.501Z,96360.41
2023-04-18T01:00:56.726Z,96352.28
2023-04-18T01:06:01.031Z,96361.19
2023-04-18T01:11:03.898Z,96360.63
2023-04-18T01:16:08.668Z,96363.59
2023-04-18T01:21:11.570Z,96372.81
2023-04-18T01:26:15.786Z,96366.56
2023-04-18T01:31:18.686Z,96370.34
2023-04-18T01:36:21.762Z,96367.66
2023-04-18T01:41:26.037Z,96357.66
2023-04-18T01:46:29.121Z,96357.91
2023-04-18T01:51:32.210Z,96353.34
2023-04-18T01:56:36.448Z,96350.91
2023-04-18T02:01:39.307Z,96356.56
2023-04-18T02:06:42.111Z,96362.81
2023-04-18T02:11:46.569Z,96356.56
2023-04-18T02:16:49.534Z,96363.88
2023-04-18T02:21:52.647Z,96364.94
2023-04-18T02:26:56.791Z,96370.34
2023-04-18T02:32:00.109Z,96364.16
2023-04-18T02:37:03.085Z,96368.72
2023-04-18T02:42:07.284Z,96369.81
2023-04-18T02:47:10.132Z,96372.53
2023-04-18T02:52:13.016Z,96367.38
2023-04-18T02:57:17.321Z,96372.00
2023-04-18T03:02:20.897Z,96368.47
2023-04-18T03:07:23.869Z,96370.63
2023-04-18T03:12:28.443Z,96363.31
2023-04-18T03:17:31.340Z,96368.72
2023-04-18T03:22:34.189Z,96364.41
2023-04-18T03:27:38.419Z,96365.22
2023-04-18T03:32:42.258Z,96361.16
2023-04-18T03:37:45.292Z,96364.66
2023-04-18T03:42:49.455Z,96367.66
2023-04-18T03:47:52.421Z,96358.47
2023-04-18T03:52:55.280Z,96362.25
2023-04-18T03:57:59.476Z,96359.81
2023-04-18T04:03:02.684Z,96355.19
2023-04-18T04:08:05.916Z,96362.50
2023-04-18T04:13:11.319Z,96360.06
2023-04-18T04:18:14.412Z,96361.69
2023-04-18T04:23:17.478Z,96358.19
2023-04-18T04:28:22.731Z,96368.44
2023-04-18T04:33:29.003Z,96370.34
2023-04-18T04:38:31.940Z,96373.06
2023-04-18T04:43:38.228Z,96370.34
2023-04-18T04:48:42.490Z,96373.06
2023-04-18T04:53:45.538Z,96376.28
2023-04-18T04:58:50.879Z,96370.88
2023-04-18T05:03:55.146Z,96376.03
2023-04-18T05:08:59.564Z,96377.13
2023-04-18T05:14:03.751Z,96378.75
2023-04-18T05:19:06.753Z,96386.03
2023-04-18T05:24:10.656Z,96388.72
2023-04-18T05:29:14.790Z,96393.59
2023-04-18T05:34:17.636Z,96394.13
2023-04-18T05:39:20.450Z,96400.38
2023-04-18T05:44:25.293Z,96401.47
2023-04-18T05:49:28.450Z,96405.78
2023-04-18T05:54:31.323Z,96406.56
2023-04-18T05:59:35.504Z,96410.09
2023-04-18T06:04:38.510Z,96403.59
2023-04-18T06:09:41.662Z,96407.13
2023-04-18T06:14:45.911Z,96418.75
2023-04-18T06:19:48.757Z,96418.75
2023-04-18T06:24:51.899Z,96411.19
2023-04-18T06:29:56.047Z,96410.91
2023-04-18T06:34:58.834Z,96405.50
2023-04-18T06:40:02.163Z,96396.88
2023-04-18T06:45:08.064Z,96389.28
2023-04-18T06:50:11.457Z,96384.44
2023-04-18T06:55:15.089Z,96383.63
2023-04-18T07:00:19.846Z,96374.69
2023-04-18T07:05:22.843Z,96383.63
2023-04-18T07:10:26.041Z,96376.31
2023-04-18T07:15:30.285Z,96378.75
2023-04-18T07:20:33.098Z,96380.13
2023-04-18T07:25:36.614Z,96389.88
2023-04-18T07:30:40.899Z,96396.34
2023-04-18T07:35:45.978Z,96396.34
2023-04-18T07:40:58.167Z,96394.16
2023-04-18T07:46:02.578Z,96402.53
2023-04-18T07:51:05.679Z,96406.59
2023-04-18T07:56:08.661Z,96414.44
2023-04-18T08:01:15.206Z,96405.53
2023-04-18T08:06:18.821Z,96413.38
2023-04-18T08:11:21.641Z,96412.28
2023-04-18T08:16:28.378Z,96416.34
2023-04-18T08:21:33.029Z,96420.91
2023-04-18T08:26:35.973Z,96423.59
2023-04-18T08:31:41.188Z,96424.69
2023-04-18T08:36:44.779Z,96422.00
2023-04-18T08:41:54.934Z,96416.06
2023-04-18T08:47:01.559Z,96415.50
2023-04-18T08:52:09.998Z,96416.31
2023-04-18T08:57:16.484Z,96419.56
2023-04-18T09:02:23.234Z,96417.38
2023-04-18T09:07:29.448Z,96410.34
2023-04-18T09:12:32.570Z,96414.66
2023-04-18T09:17:38.987Z,96415.22
2023-04-18T09:22:50.601Z,96413.31
2023-04-18T09:27:53.572Z,96410.91
2023-04-18T09:33:00.317Z,96409.53
2023-04-18T09:38:03.240Z,96407.88
2023-04-18T09:43:19.205Z,96407.06
2023-04-18T09:48:23.458Z,96408.09
2023-04-18T09:53:26.401Z,96404.00
2023-04-18T09:58:31.197Z,96403.72
2023-04-18T10:03:46.135Z,96391.81
2023-04-18T10:08:49.397Z,96396.75
2023-04-18T10:13:56.276Z,96399.47
2023-04-18T10:19:23.021Z,96388.09
2023-04-18T10:24:53.014Z,96379.34
2023-04-18T10:29:56.111Z,96377.72
2023-04-18T10:35:00.917Z,96373.91
2023-04-18T10:40:06.539Z,96383.66
2023-04-18T10:45:19.181Z,96377.66
2023-04-18T10:50:23.468Z,96366.81
2023-04-18T10:55:29.900Z,96361.13
2023-04-18T11:00:33.043Z,96363.81
2023-04-18T11:05:37.907Z,96351.06
2023-04-18T11:10:41.749Z,96349.41
2023-04-18T11:15:44.598Z,96348.88
2023-04-18T11:20:51.391Z,96349.72
2023-04-18T11:25:56.648Z,96349.13
2023-04-18T11:31:00.481Z,96352.66
2023-04-18T11:36:06.623Z,96346.13
2023-04-18T11:41:14.810Z,96351.28
2023-04-18T11:46:17.981Z,96337.19
2023-04-18T11:51:38.953Z,96324.47
2023-04-18T11:56:48.106Z,96327.16
2023-04-18T12:02:08.883Z,96330.13
2023-04-18T12:07:31.097Z,96318.69
2023-04-18T12:12:34.391Z,96314.91
2023-04-18T12:17:38.817Z,96319.25
2023-04-18T12:22:46.251Z,96319.50
2023-04-18T12:27:54.060Z,96314.34
2023-04-18T12:32:58.849Z,96317.84
2023-04-18T12:38:03.718Z,96314.03
2023-04-18T12:43:06.559Z,96309.41
2023-04-18T12:48:09.477Z,96306.41
2023-04-18T12:53:14.021Z,96298.25
2023-04-18T12:58:18.839Z,96299.31
2023-04-18T13:03:22.225Z,96299.53
2023-04-18T13:08:26.818Z,96286.78
2023-04-18T13:13:30.967Z,96291.63
2023-04-18T13:18:33.903Z,96290.78
2023-04-18T13:23:38.770Z,96295.94
2023-04-18T13:28:41.642Z,96294.28
2023-04-18T13:33:44.499Z,96280.41
2023-04-18T13:38:48.746Z,96289.09
2023-04-18T13:43:51.550Z,96276.31
2023-04-18T13:48:54.392Z,96277.63
2023-04-18T13:54:00.188Z,96277.38
2023-04-18T13:59:03.000Z,96278.41
2023-04-18T14:04:06.328Z,96277.03
2023-04-18T14:09:12.095Z,96271.56
2023-04-18T14:14:15.767Z,96259.28
2023-04-18T14:19:20.408Z,96266.81
2023-04-18T14:24:24.712Z,96263.72
2023-04-18T14:29:28.490Z,96258.72
2023-04-18T14:34:33.925Z,96267.44
2023-04-18T14:39:39.076Z,96262.00
2023-04-18T14:44:42.353Z,96261.25
2023-04-18T14:49:45.203Z,96259.53
2023-04-18T14:54:49.390Z,96267.28
2023-04-18T14:59:58.036Z,96266.31
2023-04-18T15:05:00.903Z,96259.97
2023-04-18T15:10:04.926Z,96259.44
2023-04-18T15:15:10.083Z,96255.78
2023-04-18T15:20:13.054Z,96254.16
2023-04-18T15:25:17.118Z,96258.34
2023-04-18T15:30:21.523Z,96257.78
2023-04-18T15:35:24.630Z,96263.88
2023-04-18T15:40:27.458Z,96260.13
2023-04-18T15:45:31.734Z,96263.81
2023-04-18T15:50:34.636Z,96273.84
2023-04-18T15:55:37.500Z,96270.63
2023-04-18T16:00:41.659Z,96270.19
2023-04-18T16:05:44.494Z,96271.09
2023-04-18T16:10:47.322Z,96276.75
2023-04-18T16:15:51.509Z,96274.97
2023-04-18T16:20:54.363Z,96275.28
2023-04-18T16:25:57.378Z,96288.38
2023-04-18T16:31:01.570Z,96292.63
2023-04-18T16:36:05.145Z,96292.22
2023-04-18T16:41:07.969Z,96293.41
2023-04-18T16:46:13.723Z,96299.53
2023-04-18T16:51:16.584Z,96294.34
2023-04-18T16:56:19.505Z,96296.78
2023-04-18T17:01:23.703Z,96302.66
2023-04-18T17:06:27.320Z,96307.13
2023-04-18T17:11:32.118Z,96306.84
2023-04-18T17:16:38.720Z,96306.97
2023-04-18T17:21:41.638Z,96304.09
2023-04-18T17:26:44.413Z,96307.44
2023-04-18T17:31:48.681Z,96317.09
2023-04-18T17:36:51.545Z,96321.00
2023-04-18T17:41:54.389Z,96320.56
2023-04-18T17:46:58.537Z,96321.75
2023-04-18T17:52:02.310Z,96337.31
2023-04-18T17:57:05.173Z,96331.69
2023-04-18T18:02:11.670Z,96333.63
2023-04-18T18:07:14.579Z,96343.44
2023-04-18T18:12:17.357Z,96338.59
2023-04-18T18:17:22.080Z,96349.50
2023-04-18T18:22:26.071Z,96356.56
2023-04-18T18:27:29.026Z,96357.16
2023-04-18T18:32:33.185Z,96362.09
2023-04-18T18:37:36.077Z,96364.03
2023-04-18T18:42:39.069Z,96373.81
2023-04-18T18:47:43.287Z,96379.81
2023-04-18T18:52:46.823Z,96392.06
2023-04-18T18:57:49.627Z,96394.28
2023-04-18T19:02:53.882Z,96407.28
2023-04-18T19:07:57.218Z,96398.91
2023-04-18T19:13:01.138Z,96414.66
2023-04-18T19:18:05.668Z,96417.91
2023-04-18T19:23:08.532Z,96423.91
2023-04-18T19:28:12.796Z,96429.09
2023-04-18T19:33:17.290Z,96420.72
2023-04-18T19:38:20.307Z,96432.09
2023-04-18T19:43:23.115Z,96434.25
2023-04-18T19:48:27.307Z,96442.13
2023-04-18T19:53:30.093Z,96443.50
2023-04-18T19:58:36.875Z,96446.47
2023-04-18T20:03:41.765Z,96448.94
2023-04-18T20:08:45.907Z,96454.63
2023-04-18T20:13:48.966Z,96459.53
2023-04-18T20:18:54.963Z,96466.06
2023-04-18T20:23:59.293Z,96472.84
2023-04-18T20:29:03.570Z,96475.00
2023-04-18T20:34:07.775Z,96486.94
2023-04-18T20:39:10.629Z,96487.50
2023-04-18T20:44:13.731Z,96490.47
2023-04-18T20:49:17.921Z,96496.97
2023-04-18T20:54:20.762Z,96504.56
2023-04-18T20:59:24.022Z,96498.63
2023-04-18T21:04:28.522Z,96503.22
2023-04-18T21:09:36.363Z,96507.28
2023-04-18T21:14:39.696Z,96519.22
2023-04-18T21:19:45.846Z,96526.81
2023-04-18T21:24:48.679Z,96524.91
2023-04-18T21:29:51.505Z,96530.63
2023-04-18T21:34:57.678Z,96526.56
2023-04-18T21:40:01.230Z,96536.56
2023-04-18T21:45:04.597Z,96536.03
2023-04-18T21:50:11.781Z,96530.06
2023-04-18T21:55:16.562Z,96541.72
2023-04-18T22:00:20.336Z,96540.91
2023-04-18T22:05:26.295Z,96548.22
2023-04-18T22:10:29.223Z,96547.41
2023-04-18T22:15:32.063Z,96548.75
2023-04-18T22:20:37.302Z,96549.06
2023-04-18T22:25:40.618Z,96552.03
2023-04-18T22:30:43.429Z,96553.13
2023-04-18T22:35:48.802Z,96559.34
2023-04-18T22:40:52.979Z,96559.06
2023-04-18T22:45:55.833Z,96563.69
2023-04-18T22:51:01.671Z,96569.13
2023-04-18T22:56:05.178Z,96571.00
2023-04-18T23:01:08.053Z,96573.19
2023-04-18T23:06:12.265Z,96585.06
2023-04-18T23:11:15.748Z,96587.78
2023-04-18T23:16:18.642Z,96586.16
2023-04-18T23:21:23.162Z,96586.44
2023-04-18T23:26:26.200Z,96588.59
2023-04-18T23:31:29.159Z,96595.94
2023-04-18T23:36:33.464Z,96598.66
2023-04-18T23:41:36.257Z,96598.91
2023-04-18T23:46:40.590Z,96591.03
2023-04-18T23:51:44.750Z,96596.72
2023-04-18T23:56:47.569Z,96599.44
